sensor_id;sensor_type;location;lat;lon;timestamp;P1;durP1;ratioP1;P2;durP2;ratioP2
20084;SDS011;10202;48.474;9.138;2023-05-29T00:01:33;9.70;;;4.95;;
20084;SDS011;10202;48.474;9.138;2023-05-29T00:04:01;10.65;;;5.25;;
20084;SDS011;10202;48.474;9.138;2023-05-29T00:06:26;10.40;;;5.65;;
20084;SDS011;10202;48.474;9.138;2023-05-29T00:08:52;12.00;;;4.93;;
20084;SDS011;10202;48.474;9.138;2023-05-29T00:11:20;9.23;;;4.97;;
20084;SDS011;10202;48.474;9.138;2023-05-29T00:13:50;13.15;;;5.05;;
20084;SDS011;10202;48.474;9.138;2023-05-29T00:16:16;11.68;;;5.03;;
20084;SDS011;10202;48.474;9.138;2023-05-29T00:18:45;9.55;;;5.15;;
20084;SDS011;10202;48.474;9.138;2023-05-29T00:21:13;7.85;;;4.90;;
20084;SDS011;10202;48.474;9.138;2023-05-29T00:23:41;9.55;;;5.18;;
20084;SDS011;10202;48.474;9.138;2023-05-29T00:26:11;9.30;;;4.60;;
20084;SDS011;10202;48.474;9.138;2023-05-29T00:28:43;7.72;;;5.10;;
20084;SDS011;10202;48.474;9.138;2023-05-29T00:31:13;10.60;;;5.13;;
20084;SDS011;10202;48.474;9.138;2023-05-29T00:33:41;10.82;;;5.10;;
20084;SDS011;10202;48.474;9.138;2023-05-29T00:36:09;10.93;;;5.32;;
20084;SDS011;10202;48.474;9.138;2023-05-29T00:38:35;9.73;;;5.20;;
20084;SDS011;10202;48.474;9.138;2023-05-29T00:41:03;10.98;;;5.30;;
20084;SDS011;10202;48.474;9.138;2023-05-29T00:43:31;12.32;;;4.82;;
20084;SDS011;10202;48.474;9.138;2023-05-29T00:45:59;11.68;;;5.68;;
20084;SDS011;10202;48.474;9.138;2023-05-29T00:48:25;8.98;;;4.95;;
20084;SDS011;10202;48.474;9.138;2023-05-29T00:50:53;11.15;;;4.78;;
20084;SDS011;10202;48.474;9.138;2023-05-29T00:53:18;10.77;;;4.90;;
20084;SDS011;10202;48.474;9.138;2023-05-29T00:55:46;10.60;;;5.50;;
20084;SDS011;10202;48.474;9.138;2023-05-29T00:58:12;8.43;;;5.00;;
20084;SDS011;10202;48.474;9.138;2023-05-29T01:00:43;11.65;;;5.00;;
20084;SDS011;10202;48.474;9.138;2023-05-29T01:03:11;9.48;;;4.88;;
20084;SDS011;10202;48.474;9.138;2023-05-29T01:05:42;10.00;;;5.10;;
20084;SDS011;10202;48.474;9.138;2023-05-29T01:08:11;9.27;;;5.10;;
20084;SDS011;10202;48.474;9.138;2023-05-29T01:10:37;8.55;;;4.82;;
20084;SDS011;10202;48.474;9.138;2023-05-29T01:13:16;9.82;;;5.28;;
20084;SDS011;10202;48.474;9.138;2023-05-29T01:27:05;11.18;;;4.80;;
20084;SDS011;10202;48.474;9.138;2023-05-29T01:29:35;9.93;;;5.50;;
20084;SDS011;10202;48.474;9.138;2023-05-29T01:32:07;9.25;;;5.57;;
20084;SDS011;10202;48.474;9.138;2023-05-29T01:34:36;11.65;;;5.20;;
20084;SDS011;10202;48.474;9.138;2023-05-29T01:37:09;11.77;;;5.28;;
20084;SDS011;10202;48.474;9.138;2023-05-29T01:39:37;11.95;;;5.28;;
20084;SDS011;10202;48.474;9.138;2023-05-29T01:42:03;10.80;;;5.78;;
20084;SDS011;10202;48.474;9.138;2023-05-29T01:44:29;10.70;;;5.90;;
20084;SDS011;10202;48.474;9.138;2023-05-29T01:46:57;8.68;;;5.25;;
20084;SDS011;10202;48.474;9.138;2023-05-29T01:49:23;11.43;;;5.50;;
20084;SDS011;10202;48.474;9.138;2023-05-29T01:51:51;16.98;;;5.43;;
20084;SDS011;10202;48.474;9.138;2023-05-29T01:54:22;14.90;;;5.45;;
20084;SDS011;10202;48.474;9.138;2023-05-29T01:56:52;20.95;;;5.70;;
20084;SDS011;10202;48.474;9.138;2023-05-29T01:59:20;9.15;;;5.25;;
20084;SDS011;10202;48.474;9.138;2023-05-29T02:01:47;10.45;;;5.45;;
20084;SDS011;10202;48.474;9.138;2023-05-29T02:04:13;14.75;;;5.72;;
20084;SDS011;10202;48.474;9.138;2023-05-29T02:06:38;10.23;;;5.70;;
20084;SDS011;10202;48.474;9.138;2023-05-29T02:09:04;9.48;;;5.40;;
20084;SDS011;10202;48.474;9.138;2023-05-29T02:11:31;10.15;;;5.45;;
20084;SDS011;10202;48.474;9.138;2023-05-29T02:13:59;11.63;;;5.43;;
20084;SDS011;10202;48.474;9.138;2023-05-29T02:16:29;12.13;;;5.80;;
20084;SDS011;10202;48.474;9.138;2023-05-29T02:18:59;12.05;;;5.93;;
20084;SDS011;10202;48.474;9.138;2023-05-29T02:21:26;11.25;;;5.35;;
20084;SDS011;10202;48.474;9.138;2023-05-29T02:23:52;10.60;;;5.30;;
20084;SDS011;10202;48.474;9.138;2023-05-29T02:26:17;11.82;;;5.72;;
20084;SDS011;10202;48.474;9.138;2023-05-29T02:28:45;11.18;;;5.55;;
20084;SDS011;10202;48.474;9.138;2023-05-29T02:31:13;10.27;;;5.30;;
20084;SDS011;10202;48.474;9.138;2023-05-29T02:33:41;11.45;;;6.00;;
20084;SDS011;10202;48.474;9.138;2023-05-29T02:36:09;10.52;;;5.43;;
20084;SDS011;10202;48.474;9.138;2023-05-29T02:38:36;7.85;;;4.82;;
20084;SDS011;10202;48.474;9.138;2023-05-29T02:41:05;8.82;;;5.57;;
20084;SDS011;10202;48.474;9.138;2023-05-29T02:43:31;8.18;;;5.35;;
20084;SDS011;10202;48.474;9.138;2023-05-29T02:45:56;12.20;;;5.65;;
20084;SDS011;10202;48.474;9.138;2023-05-29T02:48:22;9.95;;;5.72;;
20084;SDS011;10202;48.474;9.138;2023-05-29T02:50:51;10.80;;;5.60;;
20084;SDS011;10202;48.474;9.138;2023-05-29T02:53:19;11.07;;;5.50;;
20084;SDS011;10202;48.474;9.138;2023-05-29T02:55:45;8.23;;;5.47;;
20084;SDS011;10202;48.474;9.138;2023-05-29T02:58:14;12.68;;;5.03;;
20084;SDS011;10202;48.474;9.138;2023-05-29T03:00:41;16.77;;;5.78;;
20084;SDS011;10202;48.474;9.138;2023-05-29T03:03:07;10.35;;;5.30;;
20084;SDS011;10202;48.474;9.138;2023-05-29T03:05:37;13.23;;;5.47;;
20084;SDS011;10202;48.474;9.138;2023-05-29T03:08:03;8.60;;;5.30;;
20084;SDS011;10202;48.474;9.138;2023-05-29T03:10:29;9.10;;;5.05;;
20084;SDS011;10202;48.474;9.138;2023-05-29T03:12:57;9.85;;;4.97;;
20084;SDS011;10202;48.474;9.138;2023-05-29T03:15:22;10.07;;;5.05;;
20084;SDS011;10202;48.474;9.138;2023-05-29T03:17:52;12.73;;;5.15;;
20084;SDS011;10202;48.474;9.138;2023-05-29T03:20:23;12.40;;;5.78;;
20084;SDS011;10202;48.474;9.138;2023-05-29T03:22:54;8.85;;;5.13;;
20084;SDS011;10202;48.474;9.138;2023-05-29T03:25:20;11.35;;;5.20;;
20084;SDS011;10202;48.474;9.138;2023-05-29T03:27:48;12.75;;;5.55;;
20084;SDS011;10202;48.474;9.138;2023-05-29T03:30:18;10.40;;;5.40;;
20084;SDS011;10202;48.474;9.138;2023-05-29T03:32:46;12.93;;;5.45;;
20084;SDS011;10202;48.474;9.138;2023-05-29T03:35:18;11.15;;;5.70;;
20084;SDS011;10202;48.474;9.138;2023-05-29T03:37:43;9.63;;;5.63;;
20084;SDS011;10202;48.474;9.138;2023-05-29T03:40:09;10.63;;;5.97;;
20084;SDS011;10202;48.474;9.138;2023-05-29T03:42:38;9.30;;;5.20;;
20084;SDS011;10202;48.474;9.138;2023-05-29T03:45:04;10.82;;;5.70;;
20084;SDS011;10202;48.474;9.138;2023-05-29T03:47:37;12.13;;;5.63;;
20084;SDS011;10202;48.474;9.138;2023-05-29T03:50:05;9.93;;;5.60;;
20084;SDS011;10202;48.474;9.138;2023-05-29T03:52:34;10.07;;;5.13;;
20084;SDS011;10202;48.474;9.138;2023-05-29T03:55:05;9.48;;;5.35;;
20084;SDS011;10202;48.474;9.138;2023-05-29T03:57:39;7.53;;;4.82;;
20084;SDS011;10202;48.474;9.138;2023-05-29T04:00:09;8.85;;;5.30;;
20084;SDS011;10202;48.474;9.138;2023-05-29T04:02:38;8.43;;;5.10;;
20084;SDS011;10202;48.474;9.138;2023-05-29T04:05:05;10.27;;;5.68;;
20084;SDS011;10202;48.474;9.138;2023-05-29T04:07:35;10.95;;;5.05;;
20084;SDS011;10202;48.474;9.138;2023-05-29T04:10:07;8.23;;;5.05;;
20084;SDS011;10202;48.474;9.138;2023-05-29T04:12:33;11.57;;;5.30;;
20084;SDS011;10202;48.474;9.138;2023-05-29T04:15:02;9.30;;;5.18;;
20084;SDS011;10202;48.474;9.138;2023-05-29T04:17:30;11.07;;;4.90;;
20084;SDS011;10202;48.474;9.138;2023-05-29T04:19:58;15.00;;;5.90;;
20084;SDS011;10202;48.474;9.138;2023-05-29T04:22:33;12.25;;;5.82;;
20084;SDS011;10202;48.474;9.138;2023-05-29T04:25:01;8.88;;;5.35;;
20084;SDS011;10202;48.474;9.138;2023-05-29T04:27:34;8.73;;;5.10;;
20084;SDS011;10202;48.474;9.138;2023-05-29T04:30:05;8.05;;;4.60;;
20084;SDS011;10202;48.474;9.138;2023-05-29T04:32:36;10.07;;;5.43;;
20084;SDS011;10202;48.474;9.138;2023-05-29T04:35:02;8.40;;;4.95;;
20084;SDS011;10202;48.474;9.138;2023-05-29T04:37:31;9.05;;;4.78;;
20084;SDS011;10202;48.474;9.138;2023-05-29T04:40:05;11.98;;;5.57;;
20084;SDS011;10202;48.474;9.138;2023-05-29T04:42:38;8.90;;;5.25;;
20084;SDS011;10202;48.474;9.138;2023-05-29T04:45:07;9.80;;;5.43;;
20084;SDS011;10202;48.474;9.138;2023-05-29T04:47:36;9.68;;;4.95;;
20084;SDS011;10202;48.474;9.138;2023-05-29T04:50:12;11.05;;;5.22;;
20084;SDS011;10202;48.474;9.138;2023-05-29T04:52:42;10.70;;;5.28;;
20084;SDS011;10202;48.474;9.138;2023-05-29T04:55:10;9.52;;;5.13;;
20084;SDS011;10202;48.474;9.138;2023-05-29T04:57:36;9.63;;;4.70;;
20084;SDS011;10202;48.474;9.138;2023-05-29T05:00:08;10.90;;;5.45;;
20084;SDS011;10202;48.474;9.138;2023-05-29T05:02:41;8.25;;;4.22;;
20084;SDS011;10202;48.474;9.138;2023-05-29T05:05:11;9.30;;;5.03;;
20084;SDS011;10202;48.474;9.138;2023-05-29T05:07:37;18.50;;;5.15;;
20084;SDS011;10202;48.474;9.138;2023-05-29T05:10:03;9.60;;;4.55;;
20084;SDS011;10202;48.474;9.138;2023-05-29T05:12:31;11.30;;;4.80;;
20084;SDS011;10202;48.474;9.138;2023-05-29T05:15:02;8.32;;;4.80;;
20084;SDS011;10202;48.474;9.138;2023-05-29T05:17:29;11.05;;;4.88;;
20084;SDS011;10202;48.474;9.138;2023-05-29T05:19:59;10.02;;;4.70;;
20084;SDS011;10202;48.474;9.138;2023-05-29T05:22:25;10.50;;;5.30;;
20084;SDS011;10202;48.474;9.138;2023-05-29T05:24:54;8.77;;;4.82;;
20084;SDS011;10202;48.474;9.138;2023-05-29T05:27:22;8.98;;;5.03;;
20084;SDS011;10202;48.474;9.138;2023-05-29T05:29:48;9.25;;;4.90;;
20084;SDS011;10202;48.474;9.138;2023-05-29T05:32:13;8.35;;;5.00;;
20084;SDS011;10202;48.474;9.138;2023-05-29T05:34:42;8.48;;;4.80;;
20084;SDS011;10202;48.474;9.138;2023-05-29T05:37:13;8.68;;;5.20;;
20084;SDS011;10202;48.474;9.138;2023-05-29T05:39:40;8.07;;;4.75;;
20084;SDS011;10202;48.474;9.138;2023-05-29T05:42:06;12.93;;;4.88;;
20084;SDS011;10202;48.474;9.138;2023-05-29T05:44:52;8.18;;;4.97;;
20084;SDS011;10202;48.474;9.138;2023-05-29T05:47:21;9.15;;;5.05;;
20084;SDS011;10202;48.474;9.138;2023-05-29T05:49:48;9.38;;;5.40;;
20084;SDS011;10202;48.474;9.138;2023-05-29T05:52:17;11.43;;;5.07;;
20084;SDS011;10202;48.474;9.138;2023-05-29T05:54:48;9.65;;;5.07;;
20084;SDS011;10202;48.474;9.138;2023-05-29T05:57:16;10.05;;;5.50;;
20084;SDS011;10202;48.474;9.138;2023-05-29T05:59:47;11.55;;;5.38;;
20084;SDS011;10202;48.474;9.138;2023-05-29T06:02:12;9.57;;;5.53;;
20084;SDS011;10202;48.474;9.138;2023-05-29T06:04:38;10.45;;;5.95;;
20084;SDS011;10202;48.474;9.138;2023-05-29T06:07:09;9.57;;;5.18;;
20084;SDS011;10202;48.474;9.138;2023-05-29T06:09:37;12.38;;;5.68;;
20084;SDS011;10202;48.474;9.138;2023-05-29T06:12:07;9.98;;;5.82;;
20084;SDS011;10202;48.474;9.138;2023-05-29T06:14:34;12.10;;;5.53;;
20084;SDS011;10202;48.474;9.138;2023-05-29T06:17:05;10.30;;;5.28;;
20084;SDS011;10202;48.474;9.138;2023-05-29T06:19:32;9.15;;;5.40;;
20084;SDS011;10202;48.474;9.138;2023-05-29T06:22:01;17.00;;;6.00;;
20084;SDS011;10202;48.474;9.138;2023-05-29T06:24:29;13.77;;;6.13;;
20084;SDS011;10202;48.474;9.138;2023-05-29T06:26:58;12.43;;;5.75;;
20084;SDS011;10202;48.474;9.138;2023-05-29T06:29:24;10.18;;;6.13;;
20084;SDS011;10202;48.474;9.138;2023-05-29T06:31:50;12.85;;;5.60;;
20084;SDS011;10202;48.474;9.138;2023-05-29T06:34:23;10.75;;;5.28;;
20084;SDS011;10202;48.474;9.138;2023-05-29T06:36:53;12.23;;;5.63;;
20084;SDS011;10202;48.474;9.138;2023-05-29T06:39:20;11.23;;;5.55;;
20084;SDS011;10202;48.474;9.138;2023-05-29T06:41:51;10.40;;;5.85;;
20084;SDS011;10202;48.474;9.138;2023-05-29T06:44:17;11.75;;;5.32;;
20084;SDS011;10202;48.474;9.138;2023-05-29T06:46:52;13.35;;;6.18;;
20084;SDS011;10202;48.474;9.138;2023-05-29T06:49:20;11.70;;;5.70;;
20084;SDS011;10202;48.474;9.138;2023-05-29T06:51:48;10.77;;;5.53;;
20084;SDS011;10202;48.474;9.138;2023-05-29T06:54:23;13.15;;;5.60;;
20084;SDS011;10202;48.474;9.138;2023-05-29T06:56:55;10.02;;;5.05;;
20084;SDS011;10202;48.474;9.138;2023-05-29T06:59:22;11.80;;;5.40;;
20084;SDS011;10202;48.474;9.138;2023-05-29T07:01:51;7.78;;;5.18;;
20084;SDS011;10202;48.474;9.138;2023-05-29T07:04:19;10.40;;;5.28;;
20084;SDS011;10202;48.474;9.138;2023-05-29T07:06:47;13.07;;;5.70;;
20084;SDS011;10202;48.474;9.138;2023-05-29T07:09:16;10.68;;;5.65;;
20084;SDS011;10202;48.474;9.138;2023-05-29T07:11:44;11.65;;;5.47;;
20084;SDS011;10202;48.474;9.138;2023-05-29T07:14:10;11.27;;;5.60;;
20084;SDS011;10202;48.474;9.138;2023-05-29T07:16:36;9.85;;;5.32;;
20084;SDS011;10202;48.474;9.138;2023-05-29T07:19:04;14.77;;;5.30;;
20084;SDS011;10202;48.474;9.138;2023-05-29T07:21:34;10.15;;;5.60;;
20084;SDS011;10202;48.474;9.138;2023-05-29T07:24:04;8.77;;;5.25;;
20084;SDS011;10202;48.474;9.138;2023-05-29T07:26:33;9.82;;;5.30;;
20084;SDS011;10202;48.474;9.138;2023-05-29T07:29:03;13.40;;;5.20;;
20084;SDS011;10202;48.474;9.138;2023-05-29T07:31:34;9.02;;;5.07;;
20084;SDS011;10202;48.474;9.138;2023-05-29T07:34:00;6.68;;;4.32;;
20084;SDS011;10202;48.474;9.138;2023-05-29T07:36:32;11.13;;;4.60;;
20084;SDS011;10202;48.474;9.138;2023-05-29T07:39:01;9.07;;;5.10;;
20084;SDS011;10202;48.474;9.138;2023-05-29T07:41:34;7.88;;;4.60;;
20084;SDS011;10202;48.474;9.138;2023-05-29T07:44:04;10.77;;;5.03;;
20084;SDS011;10202;48.474;9.138;2023-05-29T07:46:30;8.40;;;5.00;;
20084;SDS011;10202;48.474;9.138;2023-05-29T07:49:16;9.13;;;5.07;;
20084;SDS011;10202;48.474;9.138;2023-05-29T07:51:41;12.93;;;4.65;;
20084;SDS011;10202;48.474;9.138;2023-05-29T07:54:07;8.23;;;4.82;;
20084;SDS011;10202;48.474;9.138;2023-05-29T07:56:38;9.00;;;4.75;;
20084;SDS011;10202;48.474;9.138;2023-05-29T07:59:09;8.25;;;4.85;;
20084;SDS011;10202;48.474;9.138;2023-05-29T08:01:42;9.65;;;5.20;;
20084;SDS011;10202;48.474;9.138;2023-05-29T08:04:28;8.73;;;5.00;;
20084;SDS011;10202;48.474;9.138;2023-05-29T08:06:56;8.20;;;5.22;;
20084;SDS011;10202;48.474;9.138;2023-05-29T08:09:21;9.18;;;4.72;;
20084;SDS011;10202;48.474;9.138;2023-05-29T08:11:47;10.27;;;5.25;;
20084;SDS011;10202;48.474;9.138;2023-05-29T08:14:20;9.18;;;4.95;;
20084;SDS011;10202;48.474;9.138;2023-05-29T08:16:48;10.85;;;5.00;;
20084;SDS011;10202;48.474;9.138;2023-05-29T08:19:14;10.07;;;4.70;;
20084;SDS011;10202;48.474;9.138;2023-05-29T08:21:44;7.60;;;4.93;;
20084;SDS011;10202;48.474;9.138;2023-05-29T08:24:14;14.93;;;5.25;;
20084;SDS011;10202;48.474;9.138;2023-05-29T08:26:45;8.27;;;5.07;;
20084;SDS011;10202;48.474;9.138;2023-05-29T08:29:15;8.05;;;5.00;;
20084;SDS011;10202;48.474;9.138;2023-05-29T08:31:41;11.07;;;5.38;;
20084;SDS011;10202;48.474;9.138;2023-05-29T08:34:16;7.88;;;5.20;;
20084;SDS011;10202;48.474;9.138;2023-05-29T08:36:44;7.72;;;4.32;;
20084;SDS011;10202;48.474;9.138;2023-05-29T08:39:16;8.90;;;5.20;;
20084;SDS011;10202;48.474;9.138;2023-05-29T08:41:53;8.80;;;4.95;;
20084;SDS011;10202;48.474;9.138;2023-05-29T08:44:32;12.13;;;4.90;;
20084;SDS011;10202;48.474;9.138;2023-05-29T08:47:00;7.53;;;5.00;;
20084;SDS011;10202;48.474;9.138;2023-05-29T08:49:40;12.60;;;4.85;;
20084;SDS011;10202;48.474;9.138;2023-05-29T08:52:17;8.20;;;4.95;;
20084;SDS011;10202;48.474;9.138;2023-05-29T08:54:50;9.45;;;5.13;;
20084;SDS011;10202;48.474;9.138;2023-05-29T08:57:17;13.73;;;5.10;;
20084;SDS011;10202;48.474;9.138;2023-05-29T08:59:43;8.88;;;5.22;;
20084;SDS011;10202;48.474;9.138;2023-05-29T09:02:10;8.10;;;4.57;;
20084;SDS011;10202;48.474;9.138;2023-05-29T09:04:39;8.85;;;5.18;;
20084;SDS011;10202;48.474;9.138;2023-05-29T09:07:10;10.35;;;5.60;;
20084;SDS011;10202;48.474;9.138;2023-05-29T09:09:38;9.02;;;5.68;;
20084;SDS011;10202;48.474;9.138;2023-05-29T09:12:06;8.32;;;5.03;;
20084;SDS011;10202;48.474;9.138;2023-05-29T09:14:33;9.70;;;5.15;;
20084;SDS011;10202;48.474;9.138;2023-05-29T09:17:10;8.35;;;5.10;;
20084;SDS011;10202;48.474;9.138;2023-05-29T09:19:37;8.63;;;4.82;;
20084;SDS011;10202;48.474;9.138;2023-05-29T09:22:09;10.20;;;5.00;;
20084;SDS011;10202;48.474;9.138;2023-05-29T09:24:40;7.68;;;4.72;;
20084;SDS011;10202;48.474;9.138;2023-05-29T09:27:11;14.00;;;5.35;;
20084;SDS011;10202;48.474;9.138;2023-05-29T09:29:40;8.30;;;4.70;;
20084;SDS011;10202;48.474;9.138;2023-05-29T09:32:17;8.23;;;5.30;;
20084;SDS011;10202;48.474;9.138;2023-05-29T09:34:48;9.35;;;5.18;;
20084;SDS011;10202;48.474;9.138;2023-05-29T09:37:24;7.78;;;5.10;;
20084;SDS011;10202;48.474;9.138;2023-05-29T09:39:54;7.50;;;4.90;;
20084;SDS011;10202;48.474;9.138;2023-05-29T09:42:22;8.00;;;4.88;;
20084;SDS011;10202;48.474;9.138;2023-05-29T09:44:51;12.38;;;5.10;;
20084;SDS011;10202;48.474;9.138;2023-05-29T09:47:19;10.10;;;5.35;;
20084;SDS011;10202;48.474;9.138;2023-05-29T09:49:51;10.25;;;4.95;;
20084;SDS011;10202;48.474;9.138;2023-05-29T09:52:22;9.45;;;4.65;;
20084;SDS011;10202;48.474;9.138;2023-05-29T09:54:52;7.78;;;4.70;;
20084;SDS011;10202;48.474;9.138;2023-05-29T09:57:18;10.90;;;5.15;;
20084;SDS011;10202;48.474;9.138;2023-05-29T09:59:44;8.65;;;5.03;;
20084;SDS011;10202;48.474;9.138;2023-05-29T10:02:12;7.47;;;4.95;;
20084;SDS011;10202;48.474;9.138;2023-05-29T10:04:42;10.55;;;5.20;;
20084;SDS011;10202;48.474;9.138;2023-05-29T10:07:22;7.40;;;4.35;;
20084;SDS011;10202;48.474;9.138;2023-05-29T10:10:03;11.07;;;4.70;;
20084;SDS011;10202;48.474;9.138;2023-05-29T10:12:37;10.52;;;4.93;;
20084;SDS011;10202;48.474;9.138;2023-05-29T10:15:11;10.25;;;5.15;;
20084;SDS011;10202;48.474;9.138;2023-05-29T10:17:39;8.15;;;4.70;;
20084;SDS011;10202;48.474;9.138;2023-05-29T10:20:15;9.75;;;4.50;;
20084;SDS011;10202;48.474;9.138;2023-05-29T10:22:51;7.82;;;5.10;;
20084;SDS011;10202;48.474;9.138;2023-05-29T10:25:20;9.65;;;5.10;;
20084;SDS011;10202;48.474;9.138;2023-05-29T10:27:51;9.13;;;4.65;;
20084;SDS011;10202;48.474;9.138;2023-05-29T10:30:22;6.57;;;4.65;;
20084;SDS011;10202;48.474;9.138;2023-05-29T10:38:40;9.10;;;4.80;;
20084;SDS011;10202;48.474;9.138;2023-05-29T10:43:53;6.47;;;4.32;;
20084;SDS011;10202;48.474;9.138;2023-05-29T10:46:19;8.23;;;4.22;;
20084;SDS011;10202;48.474;9.138;2023-05-29T10:48:53;7.05;;;4.35;;
20084;SDS011;10202;48.474;9.138;2023-05-29T10:51:26;7.90;;;4.25;;
20084;SDS011;10202;48.474;9.138;2023-05-29T10:53:56;8.07;;;4.18;;
20084;SDS011;10202;48.474;9.138;2023-05-29T10:56:27;9.20;;;4.53;;
20084;SDS011;10202;48.474;9.138;2023-05-29T10:58:57;7.43;;;4.30;;
20084;SDS011;10202;48.474;9.138;2023-05-29T11:01:27;10.60;;;4.38;;
20084;SDS011;10202;48.474;9.138;2023-05-29T11:04:24;6.57;;;4.30;;
20084;SDS011;10202;48.474;9.138;2023-05-29T11:06:40;6.25;;;4.28;;
20084;SDS011;10202;48.474;9.138;2023-05-29T11:09:27;7.00;;;4.30;;
20084;SDS011;10202;48.474;9.138;2023-05-29T11:12:12;5.75;;;3.70;;
20084;SDS011;10202;48.474;9.138;2023-05-29T11:22:56;7.20;;;3.80;;
20084;SDS011;10202;48.474;9.138;2023-05-29T11:25:27;6.15;;;4.03;;
20084;SDS011;10202;48.474;9.138;2023-05-29T11:27:53;6.10;;;3.58;;
20084;SDS011;10202;48.474;9.138;2023-05-29T11:30:21;7.57;;;4.25;;
20084;SDS011;10202;48.474;9.138;2023-05-29T11:32:49;7.18;;;4.00;;
20084;SDS011;10202;48.474;9.138;2023-05-29T11:35:17;7.50;;;3.70;;
20084;SDS011;10202;48.474;9.138;2023-05-29T11:37:47;7.22;;;3.78;;
20084;SDS011;10202;48.474;9.138;2023-05-29T11:40:13;5.20;;;3.85;;
20084;SDS011;10202;48.474;9.138;2023-05-29T11:42:45;6.30;;;4.15;;
20084;SDS011;10202;48.474;9.138;2023-05-29T11:47:55;5.88;;;3.90;;
20084;SDS011;10202;48.474;9.138;2023-05-29T11:50:29;7.13;;;4.20;;
20084;SDS011;10202;48.474;9.138;2023-05-29T11:52:59;6.63;;;3.67;;
20084;SDS011;10202;48.474;9.138;2023-05-29T11:55:26;6.28;;;3.88;;
20084;SDS011;10202;48.474;9.138;2023-05-29T11:57:59;10.93;;;4.60;;
20084;SDS011;10202;48.474;9.138;2023-05-29T12:02:59;7.35;;;4.03;;
20084;SDS011;10202;48.474;9.138;2023-05-29T12:05:30;7.60;;;4.05;;
20084;SDS011;10202;48.474;9.138;2023-05-29T12:07:57;6.18;;;4.00;;
20084;SDS011;10202;48.474;9.138;2023-05-29T12:10:26;11.40;;;3.63;;
20084;SDS011;10202;48.474;9.138;2023-05-29T12:12:59;6.85;;;3.90;;
20084;SDS011;10202;48.474;9.138;2023-05-29T12:15:30;7.03;;;3.75;;
20084;SDS011;10202;48.474;9.138;2023-05-29T12:17:59;4.50;;;3.53;;
20084;SDS011;10202;48.474;9.138;2023-05-29T12:20:26;9.98;;;4.10;;
20084;SDS011;10202;48.474;9.138;2023-05-29T12:22:58;7.50;;;3.92;;
20084;SDS011;10202;48.474;9.138;2023-05-29T12:25:30;10.88;;;3.65;;
20084;SDS011;10202;48.474;9.138;2023-05-29T12:28:05;9.02;;;3.85;;
20084;SDS011;10202;48.474;9.138;2023-05-29T12:30:31;5.10;;;3.22;;
20084;SDS011;10202;48.474;9.138;2023-05-29T12:33:03;7.53;;;3.67;;
20084;SDS011;10202;48.474;9.138;2023-05-29T12:35:31;6.13;;;3.53;;
20084;SDS011;10202;48.474;9.138;2023-05-29T12:40:33;5.80;;;3.60;;
20084;SDS011;10202;48.474;9.138;2023-05-29T12:43:00;6.88;;;3.20;;
20084;SDS011;10202;48.474;9.138;2023-05-29T12:45:33;10.00;;;3.60;;
20084;SDS011;10202;48.474;9.138;2023-05-29T12:48:03;8.68;;;3.38;;
20084;SDS011;10202;48.474;9.138;2023-05-29T12:53:02;5.85;;;3.88;;
20084;SDS011;10202;48.474;9.138;2023-05-29T12:55:36;10.07;;;3.63;;
20084;SDS011;10202;48.474;9.138;2023-05-29T12:58:08;8.48;;;3.53;;
20084;SDS011;10202;48.474;9.138;2023-05-29T13:00:39;7.00;;;3.20;;
20084;SDS011;10202;48.474;9.138;2023-05-29T13:03:09;8.02;;;3.65;;
20084;SDS011;10202;48.474;9.138;2023-05-29T13:05:38;4.93;;;3.42;;
20084;SDS011;10202;48.474;9.138;2023-05-29T13:08:11;5.38;;;3.42;;
20084;SDS011;10202;48.474;9.138;2023-05-29T13:10:36;7.00;;;3.28;;
20084;SDS011;10202;48.474;9.138;2023-05-29T13:13:04;6.85;;;3.45;;
20084;SDS011;10202;48.474;9.138;2023-05-29T13:15:30;5.95;;;3.25;;
20084;SDS011;10202;48.474;9.138;2023-05-29T13:17:57;7.22;;;3.50;;
20084;SDS011;10202;48.474;9.138;2023-05-29T13:20:28;6.05;;;3.20;;
20084;SDS011;10202;48.474;9.138;2023-05-29T13:22:57;5.72;;;3.45;;
20084;SDS011;10202;48.474;9.138;2023-05-29T13:25:27;5.95;;;3.47;;
20084;SDS011;10202;48.474;9.138;2023-05-29T13:27:56;6.82;;;3.50;;
20084;SDS011;10202;48.474;9.138;2023-05-29T13:30:23;5.43;;;3.22;;
20084;SDS011;10202;48.474;9.138;2023-05-29T13:32:52;5.88;;;3.28;;
20084;SDS011;10202;48.474;9.138;2023-05-29T13:35:19;6.85;;;3.33;;
20084;SDS011;10202;48.474;9.138;2023-05-29T13:37:47;4.95;;;3.08;;
20084;SDS011;10202;48.474;9.138;2023-05-29T13:40:16;9.50;;;3.80;;
20084;SDS011;10202;48.474;9.138;2023-05-29T13:42:41;6.70;;;3.35;;
20084;SDS011;10202;48.474;9.138;2023-05-29T13:45:11;5.80;;;3.22;;
20084;SDS011;10202;48.474;9.138;2023-05-29T13:47:40;6.45;;;3.33;;
20084;SDS011;10202;48.474;9.138;2023-05-29T13:50:08;4.82;;;3.35;;
20084;SDS011;10202;48.474;9.138;2023-05-29T13:52:34;5.80;;;3.50;;
20084;SDS011;10202;48.474;9.138;2023-05-29T13:55:05;9.15;;;3.35;;
20084;SDS011;10202;48.474;9.138;2023-05-29T13:57:34;4.65;;;3.10;;
20084;SDS011;10202;48.474;9.138;2023-05-29T14:00:01;6.60;;;3.75;;
20084;SDS011;10202;48.474;9.138;2023-05-29T14:02:33;5.85;;;3.55;;
20084;SDS011;10202;48.474;9.138;2023-05-29T14:04:58;7.00;;;3.53;;
20084;SDS011;10202;48.474;9.138;2023-05-29T14:07:26;6.25;;;3.33;;
20084;SDS011;10202;48.474;9.138;2023-05-29T14:09:56;6.50;;;3.50;;
20084;SDS011;10202;48.474;9.138;2023-05-29T14:12:22;7.70;;;3.35;;
20084;SDS011;10202;48.474;9.138;2023-05-29T14:14:48;4.18;;;3.35;;
20084;SDS011;10202;48.474;9.138;2023-05-29T14:17:13;6.35;;;3.65;;
20084;SDS011;10202;48.474;9.138;2023-05-29T14:19:40;8.30;;;3.80;;
20084;SDS011;10202;48.474;9.138;2023-05-29T14:22:05;4.68;;;3.63;;
20084;SDS011;10202;48.474;9.138;2023-05-29T14:24:31;5.25;;;3.47;;
20084;SDS011;10202;48.474;9.138;2023-05-29T14:27:03;7.78;;;3.42;;
20084;SDS011;10202;48.474;9.138;2023-05-29T14:29:35;5.65;;;3.58;;
20084;SDS011;10202;48.474;9.138;2023-05-29T14:32:00;6.22;;;3.65;;
20084;SDS011;10202;48.474;9.138;2023-05-29T14:34:30;6.80;;;3.42;;
20084;SDS011;10202;48.474;9.138;2023-05-29T14:36:56;6.75;;;3.45;;
20084;SDS011;10202;48.474;9.138;2023-05-29T14:39:24;5.20;;;3.40;;
20084;SDS011;10202;48.474;9.138;2023-05-29T14:41:49;7.50;;;3.80;;
20084;SDS011;10202;48.474;9.138;2023-05-29T14:44:19;6.72;;;3.67;;
20084;SDS011;10202;48.474;9.138;2023-05-29T14:46:47;6.70;;;3.33;;
20084;SDS011;10202;48.474;9.138;2023-05-29T14:49:15;5.65;;;3.78;;
20084;SDS011;10202;48.474;9.138;2023-05-29T14:51:43;10.15;;;3.35;;
20084;SDS011;10202;48.474;9.138;2023-05-29T14:54:14;7.18;;;4.03;;
20084;SDS011;10202;48.474;9.138;2023-05-29T14:56:42;5.55;;;3.63;;
20084;SDS011;10202;48.474;9.138;2023-05-29T14:59:12;5.80;;;3.70;;
20084;SDS011;10202;48.474;9.138;2023-05-29T15:01:40;4.75;;;3.58;;
20084;SDS011;10202;48.474;9.138;2023-05-29T15:04:09;7.05;;;3.75;;
20084;SDS011;10202;48.474;9.138;2023-05-29T15:06:37;6.88;;;3.75;;
20084;SDS011;10202;48.474;9.138;2023-05-29T15:09:07;5.85;;;3.63;;
20084;SDS011;10202;48.474;9.138;2023-05-29T15:11:35;6.93;;;3.92;;
20084;SDS011;10202;48.474;9.138;2023-05-29T15:14:08;8.73;;;3.58;;
20084;SDS011;10202;48.474;9.138;2023-05-29T15:16:36;4.97;;;3.65;;
20084;SDS011;10202;48.474;9.138;2023-05-29T15:19:04;5.70;;;3.80;;
20084;SDS011;10202;48.474;9.138;2023-05-29T15:21:30;5.53;;;3.92;;
20084;SDS011;10202;48.474;9.138;2023-05-29T15:23:56;4.65;;;3.28;;
20084;SDS011;10202;48.474;9.138;2023-05-29T15:26:24;9.85;;;3.80;;
20084;SDS011;10202;48.474;9.138;2023-05-29T15:28:57;5.63;;;3.58;;
20084;SDS011;10202;48.474;9.138;2023-05-29T15:31:25;5.20;;;3.65;;
20084;SDS011;10202;48.474;9.138;2023-05-29T15:33:50;4.90;;;3.70;;